sensor_id;sensor_type;location;lat;lon;timestamp;P1;durP1;ratioP1;P2;durP2;ratioP2
4309;SDS011;2168;53.576;9.980;2024-02-21T00:00:46;0.20;;;0.20;;
4309;SDS011;2168;53.576;9.980;2024-02-21T00:03:12;0.20;;;0.20;;
4309;SDS011;2168;53.576;9.980;2024-02-21T00:05:37;0.20;;;0.20;;
4309;SDS011;2168;53.576;9.980;2024-02-21T00:08:03;0.20;;;0.20;;
4309;SDS011;2168;53.576;9.980;2024-02-21T00:10:28;0.30;;;0.30;;
4309;SDS011;2168;53.576;9.980;2024-02-21T00:12:54;0.30;;;0.30;;
4309;SDS011;2168;53.576;9.980;2024-02-21T00:15:19;0.20;;;0.20;;
4309;SDS011;2168;53.576;9.980;2024-02-21T00:17:45;0.20;;;0.20;;
4309;SDS011;2168;53.576;9.980;2024-02-21T00:20:10;0.20;;;0.20;;
4309;SDS011;2168;53.576;9.980;2024-02-21T00:22:36;0.20;;;0.20;;
4309;SDS011;2168;53.576;9.980;2024-02-21T00:25:02;0.20;;;0.20;;
4309;SDS011;2168;53.576;9.980;2024-02-21T00:27:27;0.23;;;0.23;;
4309;SDS011;2168;53.576;9.980;2024-02-21T00:29:53;0.20;;;0.20;;
4309;SDS011;2168;53.576;9.980;2024-02-21T00:32:18;0.20;;;0.20;;
4309;SDS011;2168;53.576;9.980;2024-02-21T00:34:43;0.20;;;0.20;;
4309;SDS011;2168;53.576;9.980;2024-02-21T00:37:09;0.10;;;0.10;;
4309;SDS011;2168;53.576;9.980;2024-02-21T00:39:34;0.10;;;0.10;;
4309;SDS011;2168;53.576;9.980;2024-02-21T00:42:00;0.20;;;0.20;;
4309;SDS011;2168;53.576;9.980;2024-02-21T00:44:26;0.20;;;0.20;;
4309;SDS011;2168;53.576;9.980;2024-02-21T00:46:51;0.20;;;0.20;;
4309;SDS011;2168;53.576;9.980;2024-02-21T00:49:17;0.20;;;0.20;;
4309;SDS011;2168;53.576;9.980;2024-02-21T00:51:43;0.20;;;0.20;;
4309;SDS011;2168;53.576;9.980;2024-02-21T00:54:08;0.20;;;0.20;;
4309;SDS011;2168;53.576;9.980;2024-02-21T00:56:34;0.20;;;0.20;;
4309;SDS011;2168;53.576;9.980;2024-02-21T00:58:59;0.20;;;0.20;;
4309;SDS011;2168;53.576;9.980;2024-02-21T01:01:24;0.20;;;0.20;;
4309;SDS011;2168;53.576;9.980;2024-02-21T01:03:50;0.20;;;0.20;;
4309;SDS011;2168;53.576;9.980;2024-02-21T01:06:16;0.20;;;0.20;;
4309;SDS011;2168;53.576;9.980;2024-02-21T01:08:41;0.20;;;0.20;;
4309;SDS011;2168;53.576;9.980;2024-02-21T01:11:06;0.20;;;0.20;;
4309;SDS011;2168;53.576;9.980;2024-02-21T01:13:32;0.20;;;0.20;;
4309;SDS011;2168;53.576;9.980;2024-02-21T01:15:58;0.20;;;0.20;;
4309;SDS011;2168;53.576;9.980;2024-02-21T01:18:23;0.20;;;0.20;;
4309;SDS011;2168;53.576;9.980;2024-02-21T01:20:48;0.20;;;0.20;;
4309;SDS011;2168;53.576;9.980;2024-02-21T01:23:13;0.20;;;0.20;;
4309;SDS011;2168;53.576;9.980;2024-02-21T01:25:39;0.13;;;0.13;;
4309;SDS011;2168;53.576;9.980;2024-02-21T01:28:05;0.20;;;0.20;;
4309;SDS011;2168;53.576;9.980;2024-02-21T01:30:30;0.20;;;0.20;;
4309;SDS011;2168;53.576;9.980;2024-02-21T01:32:56;0.20;;;0.20;;
4309;SDS011;2168;53.576;9.980;2024-02-21T01:35:21;0.20;;;0.20;;
4309;SDS011;2168;53.576;9.980;2024-02-21T01:37:46;0.20;;;0.20;;
4309;SDS011;2168;53.576;9.980;2024-02-21T01:40:12;0.20;;;0.20;;
4309;SDS011;2168;53.576;9.980;2024-02-21T01:42:38;0.10;;;0.10;;
4309;SDS011;2168;53.576;9.980;2024-02-21T01:45:03;0.10;;;0.10;;
4309;SDS011;2168;53.576;9.980;2024-02-21T01:47:29;0.20;;;0.20;;
4309;SDS011;2168;53.576;9.980;2024-02-21T01:49:54;0.20;;;0.20;;
4309;SDS011;2168;53.576;9.980;2024-02-21T01:52:19;0.20;;;0.20;;
4309;SDS011;2168;53.576;9.980;2024-02-21T01:54:45;0.20;;;0.20;;
4309;SDS011;2168;53.576;9.980;2024-02-21T01:57:11;0.20;;;0.20;;
4309;SDS011;2168;53.576;9.980;2024-02-21T01:59:37;0.20;;;0.20;;
4309;SDS011;2168;53.576;9.980;2024-02-21T02:02:02;0.27;;;0.27;;
4309;SDS011;2168;53.576;9.980;2024-02-21T02:04:27;0.30;;;0.30;;
4309;SDS011;2168;53.576;9.980;2024-02-21T02:06:54;0.20;;;0.20;;
4309;SDS011;2168;53.576;9.980;2024-02-21T02:09:19;0.30;;;0.30;;
4309;SDS011;2168;53.576;9.980;2024-02-21T02:11:44;0.30;;;0.30;;
4309;SDS011;2168;53.576;9.980;2024-02-21T02:14:09;0.20;;;0.20;;
4309;SDS011;2168;53.576;9.980;2024-02-21T02:16:35;0.30;;;0.30;;
4309;SDS011;2168;53.576;9.980;2024-02-21T02:19:00;0.20;;;0.20;;
4309;SDS011;2168;53.576;9.980;2024-02-21T02:22:09;0.30;;;0.30;;
4309;SDS011;2168;53.576;9.980;2024-02-21T02:24:18;0.30;;;0.30;;
4309;SDS011;2168;53.576;9.980;2024-02-21T02:26:43;0.20;;;0.20;;
4309;SDS011;2168;53.576;9.980;2024-02-21T02:29:08;0.20;;;0.20;;
4309;SDS011;2168;53.576;9.980;2024-02-21T02:31:34;0.20;;;0.20;;
4309;SDS011;2168;53.576;9.980;2024-02-21T02:34:00;0.20;;;0.20;;
4309;SDS011;2168;53.576;9.980;2024-02-21T02:36:25;0.20;;;0.20;;
4309;SDS011;2168;53.576;9.980;2024-02-21T02:38:50;0.20;;;0.20;;
4309;SDS011;2168;53.576;9.980;2024-02-21T02:41:15;0.17;;;0.17;;
4309;SDS011;2168;53.576;9.980;2024-02-21T02:43:41;0.20;;;0.20;;
4309;SDS011;2168;53.576;9.980;2024-02-21T02:46:06;0.20;;;0.20;;
4309;SDS011;2168;53.576;9.980;2024-02-21T02:48:31;0.20;;;0.20;;
4309;SDS011;2168;53.576;9.980;2024-02-21T02:50:56;0.10;;;0.10;;
4309;SDS011;2168;53.576;9.980;2024-02-21T02:53:22;0.10;;;0.10;;
4309;SDS011;2168;53.576;9.980;2024-02-21T02:55:47;0.10;;;0.10;;
4309;SDS011;2168;53.576;9.980;2024-02-21T02:58:12;0.20;;;0.20;;
4309;SDS011;2168;53.576;9.980;2024-02-21T03:00:37;0.10;;;0.10;;
4309;SDS011;2168;53.576;9.980;2024-02-21T03:03:04;0.10;;;0.10;;
4309;SDS011;2168;53.576;9.980;2024-02-21T03:05:30;0.10;;;0.10;;
4309;SDS011;2168;53.576;9.980;2024-02-21T03:07:55;0.10;;;0.10;;
4309;SDS011;2168;53.576;9.980;2024-02-21T03:10:20;0.10;;;0.10;;
4309;SDS011;2168;53.576;9.980;2024-02-21T03:12:46;0.20;;;0.20;;
4309;SDS011;2168;53.576;9.980;2024-02-21T03:15:11;0.20;;;0.20;;
4309;SDS011;2168;53.576;9.980;2024-02-21T03:17:37;0.20;;;0.20;;
4309;SDS011;2168;53.576;9.980;2024-02-21T03:20:02;0.20;;;0.20;;
4309;SDS011;2168;53.576;9.980;2024-02-21T03:22:33;0.10;;;0.10;;
4309;SDS011;2168;53.576;9.980;2024-02-21T03:24:59;0.20;;;0.20;;
4309;SDS011;2168;53.576;9.980;2024-02-21T03:27:24;0.17;;;0.17;;
4309;SDS011;2168;53.576;9.980;2024-02-21T03:29:49;0.10;;;0.10;;
4309;SDS011;2168;53.576;9.980;2024-02-21T03:32:14;0.20;;;0.20;;
4309;SDS011;2168;53.576;9.980;2024-02-21T03:34:40;0.20;;;0.20;;
4309;SDS011;2168;53.576;9.980;2024-02-21T03:37:05;0.20;;;0.20;;
4309;SDS011;2168;53.576;9.980;2024-02-21T03:39:33;0.20;;;0.20;;
4309;SDS011;2168;53.576;9.980;2024-02-21T03:41:58;0.20;;;0.20;;
4309;SDS011;2168;53.576;9.980;2024-02-21T03:44:26;0.10;;;0.10;;
4309;SDS011;2168;53.576;9.980;2024-02-21T03:46:51;0.20;;;0.20;;
4309;SDS011;2168;53.576;9.980;2024-02-21T03:49:17;0.10;;;0.10;;
4309;SDS011;2168;53.576;9.980;2024-02-21T03:51:43;0.10;;;0.10;;
4309;SDS011;2168;53.576;9.980;2024-02-21T03:54:08;0.20;;;0.20;;
4309;SDS011;2168;53.576;9.980;2024-02-21T03:56:36;0.20;;;0.20;;
4309;SDS011;2168;53.576;9.980;2024-02-21T03:59:02;0.20;;;0.20;;
4309;SDS011;2168;53.576;9.980;2024-02-21T04:01:27;0.17;;;0.17;;
4309;SDS011;2168;53.576;9.980;2024-02-21T04:03:52;0.20;;;0.20;;
4309;SDS011;2168;53.576;9.980;2024-02-21T04:06:17;0.20;;;0.20;;
4309;SDS011;2168;53.576;9.980;2024-02-21T04:08:43;0.20;;;0.20;;
4309;SDS011;2168;53.576;9.980;2024-02-21T04:11:10;0.17;;;0.17;;
4309;SDS011;2168;53.576;9.980;2024-02-21T04:13:35;0.10;;;0.10;;
4309;SDS011;2168;53.576;9.980;2024-02-21T04:16:00;0.20;;;0.20;;
4309;SDS011;2168;53.576;9.980;2024-02-21T04:18:26;0.20;;;0.20;;
4309;SDS011;2168;53.576;9.980;2024-02-21T04:20:51;0.20;;;0.20;;
4309;SDS011;2168;53.576;9.980;2024-02-21T04:23:17;0.20;;;0.20;;
4309;SDS011;2168;53.576;9.980;2024-02-21T04:25:42;0.20;;;0.20;;
4309;SDS011;2168;53.576;9.980;2024-02-21T04:28:07;0.10;;;0.10;;
4309;SDS011;2168;53.576;9.980;2024-02-21T04:30:32;0.23;;;0.23;;
4309;SDS011;2168;53.576;9.980;2024-02-21T04:32:57;0.20;;;0.20;;
4309;SDS011;2168;53.576;9.980;2024-02-21T04:35:23;0.20;;;0.20;;
4309;SDS011;2168;53.576;9.980;2024-02-21T04:37:49;0.20;;;0.20;;
4309;SDS011;2168;53.576;9.980;2024-02-21T04:40:14;0.20;;;0.20;;
4309;SDS011;2168;53.576;9.980;2024-02-21T04:42:39;0.30;;;0.30;;
4309;SDS011;2168;53.576;9.980;2024-02-21T04:45:05;0.20;;;0.20;;
4309;SDS011;2168;53.576;9.980;2024-02-21T04:47:30;0.20;;;0.20;;
4309;SDS011;2168;53.576;9.980;2024-02-21T04:49:55;0.20;;;0.20;;
4309;SDS011;2168;53.576;9.980;2024-02-21T04:52:21;0.20;;;0.20;;
4309;SDS011;2168;53.576;9.980;2024-02-21T04:54:46;0.20;;;0.20;;
4309;SDS011;2168;53.576;9.980;2024-02-21T04:57:11;0.20;;;0.20;;
4309;SDS011;2168;53.576;9.980;2024-02-21T04:59:41;0.20;;;0.20;;
4309;SDS011;2168;53.576;9.980;2024-02-21T05:02:06;0.20;;;0.20;;
4309;SDS011;2168;53.576;9.980;2024-02-21T05:04:32;0.20;;;0.20;;
4309;SDS011;2168;53.576;9.980;2024-02-21T05:06:57;0.20;;;0.20;;
4309;SDS011;2168;53.576;9.980;2024-02-21T05:09:24;0.30;;;0.30;;
4309;SDS011;2168;53.576;9.980;2024-02-21T05:11:49;0.10;;;0.10;;
4309;SDS011;2168;53.576;9.980;2024-02-21T05:14:15;0.30;;;0.30;;
4309;SDS011;2168;53.576;9.980;2024-02-21T05:16:40;0.20;;;0.20;;
4309;SDS011;2168;53.576;9.980;2024-02-21T05:19:05;0.20;;;0.20;;
4309;SDS011;2168;53.576;9.980;2024-02-21T05:21:30;0.20;;;0.20;;
4309;SDS011;2168;53.576;9.980;2024-02-21T05:23:55;0.20;;;0.20;;
4309;SDS011;2168;53.576;9.980;2024-02-21T05:26:21;0.20;;;0.20;;
4309;SDS011;2168;53.576;9.980;2024-02-21T05:28:47;0.40;;;0.40;;
4309;SDS011;2168;53.576;9.980;2024-02-21T05:31:12;0.20;;;0.20;;
4309;SDS011;2168;53.576;9.980;2024-02-21T05:33:39;0.30;;;0.30;;
4309;SDS011;2168;53.576;9.980;2024-02-21T05:36:04;0.30;;;0.30;;
4309;SDS011;2168;53.576;9.980;2024-02-21T05:38:30;0.30;;;0.30;;
4309;SDS011;2168;53.576;9.980;2024-02-21T05:40:55;0.30;;;0.30;;
4309;SDS011;2168;53.576;9.980;2024-02-21T05:43:20;0.30;;;0.30;;
4309;SDS011;2168;53.576;9.980;2024-02-21T05:45:45;0.30;;;0.30;;
4309;SDS011;2168;53.576;9.980;2024-02-21T05:48:10;0.20;;;0.20;;
4309;SDS011;2168;53.576;9.980;2024-02-21T05:50:36;0.20;;;0.20;;
4309;SDS011;2168;53.576;9.980;2024-02-21T05:53:01;0.30;;;0.30;;
4309;SDS011;2168;53.576;9.980;2024-02-21T05:55:27;0.30;;;0.30;;
4309;SDS011;2168;53.576;9.980;2024-02-21T05:57:56;0.30;;;0.30;;
4309;SDS011;2168;53.576;9.980;2024-02-21T06:00:21;0.30;;;0.30;;
4309;SDS011;2168;53.576;9.980;2024-02-21T06:02:46;0.23;;;0.23;;
4309;SDS011;2168;53.576;9.980;2024-02-21T06:05:11;0.30;;;0.30;;
4309;SDS011;2168;53.576;9.980;2024-02-21T06:07:37;0.30;;;0.30;;
4309;SDS011;2168;53.576;9.980;2024-02-21T06:10:03;0.30;;;0.30;;
4309;SDS011;2168;53.576;9.980;2024-02-21T06:12:28;0.30;;;0.30;;
4309;SDS011;2168;53.576;9.980;2024-02-21T06:14:53;0.40;;;0.40;;
4309;SDS011;2168;53.576;9.980;2024-02-21T06:17:19;0.40;;;0.40;;
4309;SDS011;2168;53.576;9.980;2024-02-21T06:19:44;0.40;;;0.40;;
4309;SDS011;2168;53.576;9.980;2024-02-21T06:22:10;0.30;;;0.30;;
4309;SDS011;2168;53.576;9.980;2024-02-21T06:24:35;0.40;;;0.40;;
4309;SDS011;2168;53.576;9.980;2024-02-21T06:27:01;0.50;;;0.50;;
4309;SDS011;2168;53.576;9.980;2024-02-21T06:29:26;0.40;;;0.40;;
4309;SDS011;2168;53.576;9.980;2024-02-21T06:31:51;0.30;;;0.30;;
4309;SDS011;2168;53.576;9.980;2024-02-21T06:34:17;0.40;;;0.40;;
4309;SDS011;2168;53.576;9.980;2024-02-21T06:36:42;0.47;;;0.47;;
4309;SDS011;2168;53.576;9.980;2024-02-21T06:39:07;0.30;;;0.30;;
4309;SDS011;2168;53.576;9.980;2024-02-21T06:41:32;0.40;;;0.40;;
4309;SDS011;2168;53.576;9.980;2024-02-21T06:43:59;0.40;;;0.40;;
4309;SDS011;2168;53.576;9.980;2024-02-21T06:46:25;0.60;;;0.60;;
4309;SDS011;2168;53.576;9.980;2024-02-21T06:48:50;0.40;;;0.40;;
4309;SDS011;2168;53.576;9.980;2024-02-21T06:51:15;0.60;;;0.60;;
4309;SDS011;2168;53.576;9.980;2024-02-21T06:53:41;0.40;;;0.40;;
4309;SDS011;2168;53.576;9.980;2024-02-21T06:56:06;0.50;;;0.50;;
4309;SDS011;2168;53.576;9.980;2024-02-21T06:58:31;0.50;;;0.50;;
4309;SDS011;2168;53.576;9.980;2024-02-21T07:00:56;0.50;;;0.50;;
4309;SDS011;2168;53.576;9.980;2024-02-21T07:03:22;0.50;;;0.50;;
4309;SDS011;2168;53.576;9.980;2024-02-21T07:05:49;0.40;;;0.40;;
4309;SDS011;2168;53.576;9.980;2024-02-21T07:08:14;0.40;;;0.40;;
4309;SDS011;2168;53.576;9.980;2024-02-21T07:10:39;0.30;;;0.30;;
4309;SDS011;2168;53.576;9.980;2024-02-21T07:13:04;0.40;;;0.40;;
4309;SDS011;2168;53.576;9.980;2024-02-21T07:15:30;0.80;;;0.80;;
4309;SDS011;2168;53.576;9.980;2024-02-21T07:17:55;0.60;;;0.60;;
4309;SDS011;2168;53.576;9.980;2024-02-21T07:20:21;0.40;;;0.40;;
4309;SDS011;2168;53.576;9.980;2024-02-21T07:22:46;0.43;;;0.43;;
4309;SDS011;2168;53.576;9.980;2024-02-21T07:25:11;0.40;;;0.40;;
4309;SDS011;2168;53.576;9.980;2024-02-21T07:27:37;0.37;;;0.37;;
4309;SDS011;2168;53.576;9.980;2024-02-21T07:30:02;0.30;;;0.30;;
4309;SDS011;2168;53.576;9.980;2024-02-21T07:32:27;0.40;;;0.40;;
4309;SDS011;2168;53.576;9.980;2024-02-21T07:34:53;0.50;;;0.50;;
4309;SDS011;2168;53.576;9.980;2024-02-21T07:37:18;0.27;;;0.27;;
4309;SDS011;2168;53.576;9.980;2024-02-21T07:39:43;0.40;;;0.40;;
4309;SDS011;2168;53.576;9.980;2024-02-21T07:42:08;0.40;;;0.40;;
4309;SDS011;2168;53.576;9.980;2024-02-21T07:44:34;0.50;;;0.50;;
4309;SDS011;2168;53.576;9.980;2024-02-21T07:46:59;0.50;;;0.50;;
4309;SDS011;2168;53.576;9.980;2024-02-21T07:49:24;0.40;;;0.40;;
4309;SDS011;2168;53.576;9.980;2024-02-21T07:51:50;0.47;;;0.47;;
4309;SDS011;2168;53.576;9.980;2024-02-21T07:54:15;0.50;;;0.50;;
4309;SDS011;2168;53.576;9.980;2024-02-21T07:56:40;0.30;;;0.30;;
4309;SDS011;2168;53.576;9.980;2024-02-21T07:59:06;0.30;;;0.30;;
4309;SDS011;2168;53.576;9.980;2024-02-21T08:01:31;0.60;;;0.60;;
4309;SDS011;2168;53.576;9.980;2024-02-21T08:03:56;0.50;;;0.50;;
4309;SDS011;2168;53.576;9.980;2024-02-21T08:06:21;0.50;;;0.50;;
4309;SDS011;2168;53.576;9.980;2024-02-21T08:08:47;0.83;;;0.83;;
4309;SDS011;2168;53.576;9.980;2024-02-21T08:11:12;0.40;;;0.40;;
4309;SDS011;2168;53.576;9.980;2024-02-21T08:13:37;0.50;;;0.50;;
4309;SDS011;2168;53.576;9.980;2024-02-21T08:16:02;0.40;;;0.40;;
4309;SDS011;2168;53.576;9.980;2024-02-21T08:18:28;0.40;;;0.40;;
4309;SDS011;2168;53.576;9.980;2024-02-21T08:20:53;0.40;;;0.40;;
4309;SDS011;2168;53.576;9.980;2024-02-21T08:23:19;0.40;;;0.40;;
4309;SDS011;2168;53.576;9.980;2024-02-21T08:25:44;0.30;;;0.30;;
4309;SDS011;2168;53.576;9.980;2024-02-21T08:28:09;0.40;;;0.40;;
4309;SDS011;2168;53.576;9.980;2024-02-21T08:30:34;0.50;;;0.50;;
4309;SDS011;2168;53.576;9.980;2024-02-21T08:33:00;0.27;;;0.27;;
4309;SDS011;2168;53.576;9.980;2024-02-21T08:35:25;0.30;;;0.30;;
4309;SDS011;2168;53.576;9.980;2024-02-21T08:37:50;0.27;;;0.27;;
4309;SDS011;2168;53.576;9.980;2024-02-21T08:40:16;0.30;;;0.30;;
4309;SDS011;2168;53.576;9.980;2024-02-21T08:42:46;0.40;;;0.40;;
4309;SDS011;2168;53.576;9.980;2024-02-21T08:45:11;0.40;;;0.40;;
4309;SDS011;2168;53.576;9.980;2024-02-21T08:47:38;0.30;;;0.30;;
4309;SDS011;2168;53.576;9.980;2024-02-21T08:50:04;0.40;;;0.40;;
4309;SDS011;2168;53.576;9.980;2024-02-21T08:52:30;0.30;;;0.30;;
4309;SDS011;2168;53.576;9.980;2024-02-21T08:54:58;0.30;;;0.30;;
4309;SDS011;2168;53.576;9.980;2024-02-21T08:57:23;0.30;;;0.30;;
4309;SDS011;2168;53.576;9.980;2024-02-21T08:59:49;0.50;;;0.50;;
4309;SDS011;2168;53.576;9.980;2024-02-21T09:02:15;0.60;;;0.60;;
4309;SDS011;2168;53.576;9.980;2024-02-21T09:04:41;0.43;;;0.43;;
4309;SDS011;2168;53.576;9.980;2024-02-21T09:07:06;0.50;;;0.50;;
4309;SDS011;2168;53.576;9.980;2024-02-21T09:09:31;0.40;;;0.40;;
4309;SDS011;2168;53.576;9.980;2024-02-21T09:11:58;0.40;;;0.40;;
4309;SDS011;2168;53.576;9.980;2024-02-21T09:14:30;0.40;;;0.40;;
4309;SDS011;2168;53.576;9.980;2024-02-21T09:16:55;0.40;;;0.40;;
4309;SDS011;2168;53.576;9.980;2024-02-21T09:19:20;0.37;;;0.37;;
4309;SDS011;2168;53.576;9.980;2024-02-21T09:21:46;0.30;;;0.30;;
4309;SDS011;2168;53.576;9.980;2024-02-21T09:24:11;0.50;;;0.50;;
4309;SDS011;2168;53.576;9.980;2024-02-21T09:26:36;0.40;;;0.40;;
4309;SDS011;2168;53.576;9.980;2024-02-21T09:29:01;0.60;;;0.60;;
4309;SDS011;2168;53.576;9.980;2024-02-21T09:31:27;0.40;;;0.40;;
4309;SDS011;2168;53.576;9.980;2024-02-21T09:33:52;0.40;;;0.40;;
4309;SDS011;2168;53.576;9.980;2024-02-21T09:36:17;0.50;;;0.50;;
4309;SDS011;2168;53.576;9.980;2024-02-21T09:38:43;0.37;;;0.37;;
4309;SDS011;2168;53.576;9.980;2024-02-21T09:41:14;0.30;;;0.30;;
4309;SDS011;2168;53.576;9.980;2024-02-21T09:43:41;0.40;;;0.40;;
4309;SDS011;2168;53.576;9.980;2024-02-21T09:46:06;0.50;;;0.50;;
4309;SDS011;2168;53.576;9.980;2024-02-21T09:48:44;0.40;;;0.40;;
4309;SDS011;2168;53.576;9.980;2024-02-21T09:51:11;0.30;;;0.30;;
4309;SDS011;2168;53.576;9.980;2024-02-21T09:53:39;0.40;;;0.40;;
4309;SDS011;2168;53.576;9.980;2024-02-21T09:56:07;0.40;;;0.40;;
4309;SDS011;2168;53.576;9.980;2024-02-21T09:58:33;0.40;;;0.40;;
4309;SDS011;2168;53.576;9.980;2024-02-21T10:00:59;0.50;;;0.50;;
4309;SDS011;2168;53.576;9.980;2024-02-21T10:03:25;0.30;;;0.30;;
4309;SDS011;2168;53.576;9.980;2024-02-21T10:05:50;0.40;;;0.40;;
4309;SDS011;2168;53.576;9.980;2024-02-21T10:08:15;0.40;;;0.40;;
4309;SDS011;2168;53.576;9.980;2024-02-21T10:10:44;0.40;;;0.40;;
4309;SDS011;2168;53.576;9.980;2024-02-21T10:13:10;0.40;;;0.40;;
4309;SDS011;2168;53.576;9.980;2024-02-21T10:15:36;0.30;;;0.30;;
4309;SDS011;2168;53.576;9.980;2024-02-21T10:18:01;0.40;;;0.40;;
4309;SDS011;2168;53.576;9.980;2024-02-21T10:20:31;0.30;;;0.30;;
4309;SDS011;2168;53.576;9.980;2024-02-21T10:23:03;0.33;;;0.33;;
4309;SDS011;2168;53.576;9.980;2024-02-21T10:25:33;0.30;;;0.30;;
4309;SDS011;2168;53.576;9.980;2024-02-21T10:27:58;0.40;;;0.40;;
4309;SDS011;2168;53.576;9.980;2024-02-21T10:30:23;0.30;;;0.30;;
4309;SDS011;2168;53.576;9.980;2024-02-21T10:32:52;0.37;;;0.37;;
4309;SDS011;2168;53.576;9.980;2024-02-21T10:35:28;0.30;;;0.30;;
4309;SDS011;2168;53.576;9.980;2024-02-21T10:37:54;0.30;;;0.30;;
4309;SDS011;2168;53.576;9.980;2024-02-21T10:40:24;0.37;;;0.37;;
4309;SDS011;2168;53.576;9.980;2024-02-21T10:42:51;0.30;;;0.30;;
4309;SDS011;2168;53.576;9.980;2024-02-21T10:45:18;0.30;;;0.30;;
4309;SDS011;2168;53.576;9.980;2024-02-21T10:47:44;0.20;;;0.20;;
4309;SDS011;2168;53.576;9.980;2024-02-21T10:50:13;0.40;;;0.40;;
4309;SDS011;2168;53.576;9.980;2024-02-21T10:52:47;0.30;;;0.30;;
4309;SDS011;2168;53.576;9.980;2024-02-21T10:55:16;0.30;;;0.30;;
4309;SDS011;2168;53.576;9.980;2024-02-21T10:57:41;0.23;;;0.23;;
4309;SDS011;2168;53.576;9.980;2024-02-21T11:00:07;0.30;;;0.30;;
4309;SDS011;2168;53.576;9.980;2024-02-21T11:02:37;0.20;;;0.20;;
4309;SDS011;2168;53.576;9.980;2024-02-21T11:05:03;0.30;;;0.30;;
4309;SDS011;2168;53.576;9.980;2024-02-21T11:07:29;0.30;;;0.30;;
4309;SDS011;2168;53.576;9.980;2024-02-21T11:09:57;0.20;;;0.20;;
4309;SDS011;2168;53.576;9.980;2024-02-21T11:12:24;0.30;;;0.30;;
4309;SDS011;2168;53.576;9.980;2024-02-21T11:14:50;0.20;;;0.20;;
4309;SDS011;2168;53.576;9.980;2024-02-21T11:17:15;0.20;;;0.20;;
4309;SDS011;2168;53.576;9.980;2024-02-21T11:19:41;0.30;;;0.30;;
4309;SDS011;2168;53.576;9.980;2024-02-21T11:22:14;0.20;;;0.20;;
4309;SDS011;2168;53.576;9.980;2024-02-21T11:24:39;0.30;;;0.30;;
4309;SDS011;2168;53.576;9.980;2024-02-21T11:27:20;0.30;;;0.30;;
4309;SDS011;2168;53.576;9.980;2024-02-21T11:29:46;0.30;;;0.30;;
4309;SDS011;2168;53.576;9.980;2024-02-21T11:32:15;0.30;;;0.30;;
4309;SDS011;2168;53.576;9.980;2024-02-21T11:34:41;0.20;;;0.20;;
4309;SDS011;2168;53.576;9.980;2024-02-21T11:37:12;0.20;;;0.20;;
4309;SDS011;2168;53.576;9.980;2024-02-21T11:39:38;0.27;;;0.27;;
4309;SDS011;2168;53.576;9.980;2024-02-21T11:42:04;0.30;;;0.30;;
4309;SDS011;2168;53.576;9.980;2024-02-21T11:44:31;0.30;;;0.30;;
4309;SDS011;2168;53.576;9.980;2024-02-21T11:46:56;0.20;;;0.20;;
4309;SDS011;2168;53.576;9.980;2024-02-21T11:49:21;0.30;;;0.30;;
4309;SDS011;2168;53.576;9.980;2024-02-21T11:51:49;0.20;;;0.20;;
4309;SDS011;2168;53.576;9.980;2024-02-21T11:54:22;0.30;;;0.30;;
4309;SDS011;2168;53.576;9.980;2024-02-21T11:56:47;0.30;;;0.30;;
4309;SDS011;2168;53.576;9.980;2024-02-21T11:59:12;0.20;;;0.20;;
4309;SDS011;2168;53.576;9.980;2024-02-21T12:01:38;0.30;;;0.30;;
4309;SDS011;2168;53.576;9.980;2024-02-21T12:04:03;0.33;;;0.33;;
4309;SDS011;2168;53.576;9.980;2024-02-21T12:06:28;0.23;;;0.23;;
4309;SDS011;2168;53.576;9.980;2024-02-21T12:08:57;0.20;;;0.20;;
4309;SDS011;2168;53.576;9.980;2024-02-21T12:11:22;0.30;;;0.30;;
4309;SDS011;2168;53.576;9.980;2024-02-21T12:14:09;0.30;;;0.30;;
4309;SDS011;2168;53.576;9.980;2024-02-21T12:16:34;0.20;;;0.20;;
4309;SDS011;2168;53.576;9.980;2024-02-21T12:18:59;0.10;;;0.10;;
4309;SDS011;2168;53.576;9.980;2024-02-21T12:21:31;0.20;;;0.20;;
4309;SDS011;2168;53.576;9.980;2024-02-21T12:23:58;0.20;;;0.20;;
4309;SDS011;2168;53.576;9.980;2024-02-21T12:26:23;0.63;;;0.63;;
4309;SDS011;2168;53.576;9.980;2024-02-21T12:28:48;0.53;;;0.53;;
4309;SDS011;2168;53.576;9.980;2024-02-21T12:31:13;0.30;;;0.30;;
4309;SDS011;2168;53.576;9.980;2024-02-21T12:33:39;0.20;;;0.20;;
4309;SDS011;2168;53.576;9.980;2024-02-21T12:36:04;0.30;;;0.30;;
4309;SDS011;2168;53.576;9.980;2024-02-21T12:38:29;0.30;;;0.30;;
4309;SDS011;2168;53.576;9.980;2024-02-21T12:40:55;0.10;;;0.10;;
4309;SDS011;2168;53.576;9.980;2024-02-21T12:43:22;0.20;;;0.20;;
4309;SDS011;2168;53.576;9.980;2024-02-21T12:45:47;0.20;;;0.20;;
4309;SDS011;2168;53.576;9.980;2024-02-21T12:48:13;0.20;;;0.20;;
4309;SDS011;2168;53.576;9.980;2024-02-21T12:50:39;0.20;;;0.20;;
4309;SDS011;2168;53.576;9.980;2024-02-21T12:53:04;0.20;;;0.20;;
4309;SDS011;2168;53.576;9.980;2024-02-21T12:55:29;0.60;;;0.60;;
4309;SDS011;2168;53.576;9.980;2024-02-21T12:57:55;0.30;;;0.30;;
4309;SDS011;2168;53.576;9.980;2024-02-21T13:00:20;0.23;;;0.23;;
4309;SDS011;2168;53.576;9.980;2024-02-21T13:02:46;0.30;;;0.30;;
4309;SDS011;2168;53.576;9.980;2024-02-21T13:05:11;0.20;;;0.20;;
4309;SDS011;2168;53.576;9.980;2024-02-21T13:07:37;0.27;;;0.27;;
4309;SDS011;2168;53.576;9.980;2024-02-21T13:10:02;0.30;;;0.30;;
4309;SDS011;2168;53.576;9.980;2024-02-21T13:12:31;0.30;;;0.30;;
4309;SDS011;2168;53.576;9.980;2024-02-21T13:14:57;0.40;;;0.40;;
4309;SDS011;2168;53.576;9.980;2024-02-21T13:17:22;0.30;;;0.30;;
4309;SDS011;2168;53.576;9.980;2024-02-21T13:19:48;0.20;;;0.20;;
4309;SDS011;2168;53.576;9.980;2024-02-21T13:22:13;0.40;;;0.40;;
4309;SDS011;2168;53.576;9.980;2024-02-21T13:24:38;0.20;;;0.20;;
4309;SDS011;2168;53.576;9.980;2024-02-21T13:27:03;0.30;;;0.30;;
4309;SDS011;2168;53.576;9.980;2024-02-21T13:29:29;0.50;;;0.50;;
4309;SDS011;2168;53.576;9.980;2024-02-21T13:31:54;0.30;;;0.30;;
4309;SDS011;2168;53.576;9.980;2024-02-21T13:34:20;0.40;;;0.40;;
4309;SDS011;2168;53.576;9.980;2024-02-21T13:36:50;0.37;;;0.37;;
4309;SDS011;2168;53.576;9.980;2024-02-21T13:39:15;0.50;;;0.50;;
4309;SDS011;2168;53.576;9.980;2024-02-21T13:41:41;0.40;;;0.40;;
4309;SDS011;2168;53.576;9.980;2024-02-21T13:44:07;0.40;;;0.40;;
4309;SDS011;2168;53.576;9.980;2024-02-21T13:46:34;0.33;;;0.33;;
4309;SDS011;2168;53.576;9.980;2024-02-21T13:49:03;0.30;;;0.30;;
4309;SDS011;2168;53.576;9.980;2024-02-21T13:51:32;0.30;;;0.30;;
4309;SDS011;2168;53.576;9.980;2024-02-21T13:53:58;0.30;;;0.30;;
4309;SDS011;2168;53.576;9.980;2024-02-21T13:56:24;0.60;;;0.60;;
4309;SDS011;2168;53.576;9.980;2024-02-21T13:58:49;0.30;;;0.30;;
4309;SDS011;2168;53.576;9.980;2024-02-21T14:01:14;0.30;;;0.30;;
4309;SDS011;2168;53.576;9.980;2024-02-21T14:03:40;0.30;;;0.30;;
4309;SDS011;2168;53.576;9.980;2024-02-21T14:06:06;0.50;;;0.50;;
4309;SDS011;2168;53.576;9.980;2024-02-21T14:08:31;0.40;;;0.40;;
4309;SDS011;2168;53.576;9.980;2024-02-21T14:10:59;0.40;;;0.40;;
4309;SDS011;2168;53.576;9.980;2024-02-21T14:13:25;0.40;;;0.40;;
4309;SDS011;2168;53.576;9.980;2024-02-21T14:15:50;0.30;;;0.30;;
4309;SDS011;2168;53.576;9.980;2024-02-21T14:18:16;0.30;;;0.30;;
4309;SDS011;2168;53.576;9.980;2024-02-21T14:20:42;0.30;;;0.30;;
4309;SDS011;2168;53.576;9.980;2024-02-21T14:23:08;0.37;;;0.37;;
4309;SDS011;2168;53.576;9.980;2024-02-21T14:25:34;0.47;;;0.47;;
4309;SDS011;2168;53.576;9.980;2024-02-21T14:27:59;0.40;;;0.40;;
4309;SDS011;2168;53.576;9.980;2024-02-21T14:30:28;0.63;;;0.63;;
4309;SDS011;2168;53.576;9.980;2024-02-21T14:32:53;0.30;;;0.30;;
4309;SDS011;2168;53.576;9.980;2024-02-21T14:35:20;0.30;;;0.30;;
4309;SDS011;2168;53.576;9.980;2024-02-21T14:37:45;0.40;;;0.40;;
4309;SDS011;2168;53.576;9.980;2024-02-21T14:40:14;0.30;;;0.30;;
4309;SDS011;2168;53.576;9.980;2024-02-21T14:42:46;0.40;;;0.40;;
4309;SDS011;2168;53.576;9.980;2024-02-21T14:45:11;0.60;;;0.60;;
4309;SDS011;2168;53.576;9.980;2024-02-21T14:47:36;0.30;;;0.30;;
4309;SDS011;2168;53.576;9.980;2024-02-21T14:50:02;0.30;;;0.30;;
4309;SDS011;2168;53.576;9.980;2024-02-21T14:52:29;0.40;;;0.40;;
4309;SDS011;2168;53.576;9.980;2024-02-21T14:54:56;0.30;;;0.30;;
4309;SDS011;2168;53.576;9.980;2024-02-21T14:57:44;0.40;;;0.40;;
4309;SDS011;2168;53.576;9.980;2024-02-21T15:00:09;0.30;;;0.30;;
4309;SDS011;2168;53.576;9.980;2024-02-21T15:02:36;0.40;;;0.40;;
4309;SDS011;2168;53.576;9.980;2024-02-21T15:05:01;0.40;;;0.40;;
4309;SDS011;2168;53.576;9.980;2024-02-21T15:07:28;0.33;;;0.33;;